sensor_id;sensor_type;location;lat;lon;timestamp;P1;durP1;ratioP1;P2;durP2;ratioP2
15944;SDS011;30172;48.832;8.732;2023-07-24T00:18:38;10.60;;;8.85;;
15944;SDS011;30172;48.832;8.732;2023-07-24T00:25:01;11.38;;;8.85;;
15944;SDS011;30172;48.832;8.732;2023-07-24T00:30:47;11.95;;;8.73;;
15944;SDS011;30172;48.832;8.732;2023-07-24T00:33:15;10.00;;;8.05;;
15944;SDS011;30172;48.832;8.732;2023-07-24T00:35:49;10.98;;;8.27;;
15944;SDS011;30172;48.832;8.732;2023-07-24T00:38:40;11.07;;;8.52;;
15944;SDS011;30172;48.832;8.732;2023-07-24T00:41:54;10.50;;;8.20;;
15944;SDS011;30172;48.832;8.732;2023-07-24T00:44:28;12.65;;;8.55;;
15944;SDS011;30172;48.832;8.732;2023-07-24T00:47:17;12.55;;;8.85;;
15944;SDS011;30172;48.832;8.732;2023-07-24T00:50:02;10.95;;;8.65;;
15944;SDS011;30172;48.832;8.732;2023-07-24T00:52:42;11.70;;;8.32;;
15944;SDS011;30172;48.832;8.732;2023-07-24T00:55:21;12.50;;;8.93;;
15944;SDS011;30172;48.832;8.732;2023-07-24T00:57:51;10.85;;;8.95;;
15944;SDS011;30172;48.832;8.732;2023-07-24T01:00:25;12.38;;;9.55;;
15944;SDS011;30172;48.832;8.732;2023-07-24T01:02:59;10.77;;;8.57;;
15944;SDS011;30172;48.832;8.732;2023-07-24T01:05:25;12.50;;;8.60;;
15944;SDS011;30172;48.832;8.732;2023-07-24T01:08:02;10.02;;;8.70;;
15944;SDS011;30172;48.832;8.732;2023-07-24T01:11:04;10.35;;;8.27;;
15944;SDS011;30172;48.832;8.732;2023-07-24T01:13:42;11.30;;;8.65;;
15944;SDS011;30172;48.832;8.732;2023-07-24T01:19:52;12.93;;;8.32;;
15944;SDS011;30172;48.832;8.732;2023-07-24T01:31:20;10.05;;;8.20;;
15944;SDS011;30172;48.832;8.732;2023-07-24T01:34:28;13.73;;;8.75;;
15944;SDS011;30172;48.832;8.732;2023-07-24T01:43:47;12.88;;;9.13;;
15944;SDS011;30172;48.832;8.732;2023-07-24T01:47:07;9.73;;;8.55;;
15944;SDS011;30172;48.832;8.732;2023-07-24T01:50:34;12.60;;;8.68;;
15944;SDS011;30172;48.832;8.732;2023-07-24T01:53:22;10.15;;;8.13;;
15944;SDS011;30172;48.832;8.732;2023-07-24T01:55:57;10.82;;;7.85;;
15944;SDS011;30172;48.832;8.732;2023-07-24T01:58:56;10.63;;;8.90;;
15944;SDS011;30172;48.832;8.732;2023-07-24T02:01:47;12.98;;;8.73;;
15944;SDS011;30172;48.832;8.732;2023-07-24T02:07:54;12.18;;;9.07;;
15944;SDS011;30172;48.832;8.732;2023-07-24T02:20:18;11.55;;;8.73;;
15944;SDS011;30172;48.832;8.732;2023-07-24T02:23:35;11.25;;;8.10;;
15944;SDS011;30172;48.832;8.732;2023-07-24T02:33:57;12.18;;;8.55;;
15944;SDS011;30172;48.832;8.732;2023-07-24T02:37:30;13.05;;;8.13;;
15944;SDS011;30172;48.832;8.732;2023-07-24T02:44:47;10.80;;;7.90;;
15944;SDS011;30172;48.832;8.732;2023-07-24T03:01:55;10.77;;;8.25;;
15944;SDS011;30172;48.832;8.732;2023-07-24T03:05:02;10.48;;;8.57;;
15944;SDS011;30172;48.832;8.732;2023-07-24T03:08:09;11.13;;;8.27;;
15944;SDS011;30172;48.832;8.732;2023-07-24T03:13:49;12.13;;;8.52;;
15944;SDS011;30172;48.832;8.732;2023-07-24T04:09:35;11.75;;;8.80;;
15944;SDS011;30172;48.832;8.732;2023-07-24T04:12:50;11.38;;;8.50;;
15944;SDS011;30172;48.832;8.732;2023-07-24T04:16:22;10.65;;;8.55;;
15944;SDS011;30172;48.832;8.732;2023-07-24T04:19:44;11.90;;;8.70;;
15944;SDS011;30172;48.832;8.732;2023-07-24T04:23:01;10.25;;;8.00;;
15944;SDS011;30172;48.832;8.732;2023-07-24T04:39:51;10.98;;;8.68;;
15944;SDS011;30172;48.832;8.732;2023-07-24T04:42:19;10.77;;;8.98;;
15944;SDS011;30172;48.832;8.732;2023-07-24T04:44:44;12.23;;;8.80;;
15944;SDS011;30172;48.832;8.732;2023-07-24T04:47:10;12.10;;;9.15;;
15944;SDS011;30172;48.832;8.732;2023-07-24T04:49:35;13.05;;;8.60;;
15944;SDS011;30172;48.832;8.732;2023-07-24T04:52:00;12.18;;;8.70;;
15944;SDS011;30172;48.832;8.732;2023-07-24T04:54:26;11.40;;;8.13;;
15944;SDS011;30172;48.832;8.732;2023-07-24T04:56:54;11.63;;;8.48;;
15944;SDS011;30172;48.832;8.732;2023-07-24T04:59:19;12.85;;;9.23;;
15944;SDS011;30172;48.832;8.732;2023-07-24T05:01:44;12.75;;;9.25;;
15944;SDS011;30172;48.832;8.732;2023-07-24T05:04:10;11.75;;;9.18;;
15944;SDS011;30172;48.832;8.732;2023-07-24T05:06:35;12.18;;;8.68;;
15944;SDS011;30172;48.832;8.732;2023-07-24T05:09:02;10.82;;;8.48;;
15944;SDS011;30172;48.832;8.732;2023-07-24T05:11:27;12.90;;;8.85;;
15944;SDS011;30172;48.832;8.732;2023-07-24T05:13:53;11.50;;;8.88;;
15944;SDS011;30172;48.832;8.732;2023-07-24T05:16:24;12.90;;;8.63;;
15944;SDS011;30172;48.832;8.732;2023-07-24T05:18:49;12.80;;;8.82;;
15944;SDS011;30172;48.832;8.732;2023-07-24T05:21:14;13.48;;;9.20;;
15944;SDS011;30172;48.832;8.732;2023-07-24T05:23:42;13.77;;;9.63;;
15944;SDS011;30172;48.832;8.732;2023-07-24T06:38:33;11.68;;;8.15;;
15944;SDS011;30172;48.832;8.732;2023-07-24T06:40:59;11.73;;;8.15;;
15944;SDS011;30172;48.832;8.732;2023-07-24T08:56:43;10.32;;;8.50;;
15944;SDS011;30172;48.832;8.732;2023-07-24T10:10:16;8.43;;;7.28;;
15944;SDS011;30172;48.832;8.732;2023-07-24T11:38:00;8.00;;;6.15;;
15944;SDS011;30172;48.832;8.732;2023-07-24T11:40:33;8.43;;;6.40;;
15944;SDS011;30172;48.832;8.732;2023-07-24T11:43:20;8.35;;;6.72;;
15944;SDS011;30172;48.832;8.732;2023-07-24T12:12:46;9.85;;;7.05;;
15944;SDS011;30172;48.832;8.732;2023-07-24T12:15:12;8.63;;;6.95;;
15944;SDS011;30172;48.832;8.732;2023-07-24T12:17:39;7.88;;;7.03;;
15944;SDS011;30172;48.832;8.732;2023-07-24T12:20:05;7.95;;;6.93;;
15944;SDS011;30172;48.832;8.732;2023-07-24T12:22:33;7.50;;;6.57;;
15944;SDS011;30172;48.832;8.732;2023-07-24T12:24:58;9.40;;;7.60;;
15944;SDS011;30172;48.832;8.732;2023-07-24T12:27:24;8.38;;;6.53;;
15944;SDS011;30172;48.832;8.732;2023-07-24T12:29:49;9.90;;;7.20;;
15944;SDS011;30172;48.832;8.732;2023-07-24T12:32:16;7.55;;;6.65;;
15944;SDS011;30172;48.832;8.732;2023-07-24T12:34:41;11.00;;;6.75;;
15944;SDS011;30172;48.832;8.732;2023-07-24T12:37:06;8.93;;;7.15;;
15944;SDS011;30172;48.832;8.732;2023-07-24T12:39:32;8.18;;;7.10;;
15944;SDS011;30172;48.832;8.732;2023-07-24T12:41:57;9.25;;;6.88;;
15944;SDS011;30172;48.832;8.732;2023-07-24T12:44:22;10.07;;;6.57;;
15944;SDS011;30172;48.832;8.732;2023-07-24T12:46:48;8.15;;;7.07;;
15944;SDS011;30172;48.832;8.732;2023-07-24T12:49:13;8.40;;;7.03;;
15944;SDS011;30172;48.832;8.732;2023-07-24T12:51:38;8.73;;;6.88;;
15944;SDS011;30172;48.832;8.732;2023-07-24T12:54:06;8.38;;;6.70;;
15944;SDS011;30172;48.832;8.732;2023-07-24T12:56:31;9.70;;;6.63;;
15944;SDS011;30172;48.832;8.732;2023-07-24T12:58:57;9.52;;;7.38;;
15944;SDS011;30172;48.832;8.732;2023-07-24T13:01:22;7.97;;;6.93;;
15944;SDS011;30172;48.832;8.732;2023-07-24T13:03:49;8.63;;;6.97;;
15944;SDS011;30172;48.832;8.732;2023-07-24T13:06:14;9.00;;;7.10;;
15944;SDS011;30172;48.832;8.732;2023-07-24T13:08:39;9.25;;;7.18;;
15944;SDS011;30172;48.832;8.732;2023-07-24T13:11:10;8.18;;;6.80;;
15944;SDS011;30172;48.832;8.732;2023-07-24T13:13:38;7.47;;;6.53;;
15944;SDS011;30172;48.832;8.732;2023-07-24T13:16:04;8.52;;;6.80;;
15944;SDS011;30172;48.832;8.732;2023-07-24T13:49:32;8.80;;;6.63;;
15944;SDS011;30172;48.832;8.732;2023-07-24T13:56:30;6.88;;;5.80;;
15944;SDS011;30172;48.832;8.732;2023-07-24T13:59:36;6.35;;;5.72;;
15944;SDS011;30172;48.832;8.732;2023-07-24T14:02:33;6.88;;;6.18;;
15944;SDS011;30172;48.832;8.732;2023-07-24T14:05:20;6.18;;;5.57;;
15944;SDS011;30172;48.832;8.732;2023-07-24T14:18:12;6.65;;;5.43;;
15944;SDS011;30172;48.832;8.732;2023-07-24T15:56:46;8.45;;;5.13;;
15944;SDS011;30172;48.832;8.732;2023-07-24T15:59:12;7.68;;;6.30;;
15944;SDS011;30172;48.832;8.732;2023-07-24T16:01:46;7.82;;;5.47;;
15944;SDS011;30172;48.832;8.732;2023-07-24T16:32:16;6.70;;;5.40;;
15944;SDS011;30172;48.832;8.732;2023-07-24T16:34:47;7.38;;;4.28;;
15944;SDS011;30172;48.832;8.732;2023-07-24T16:37:24;8.43;;;4.82;;
15944;SDS011;30172;48.832;8.732;2023-07-24T16:49:44;3.20;;;2.67;;
15944;SDS011;30172;48.832;8.732;2023-07-24T18:33:25;3.55;;;2.08;;
15944;SDS011;30172;48.832;8.732;2023-07-24T18:36:04;3.60;;;2.10;;
15944;SDS011;30172;48.832;8.732;2023-07-24T18:38:29;2.92;;;2.38;;
15944;SDS011;30172;48.832;8.732;2023-07-24T18:41:25;3.17;;;2.20;;
15944;SDS011;30172;48.832;8.732;2023-07-24T18:44:08;2.33;;;2.10;;
15944;SDS011;30172;48.832;8.732;2023-07-24T18:54:44;2.35;;;2.13;;
15944;SDS011;30172;48.832;8.732;2023-07-24T18:57:46;3.92;;;2.17;;
15944;SDS011;30172;48.832;8.732;2023-07-24T19:04:03;4.00;;;3.03;;
15944;SDS011;30172;48.832;8.732;2023-07-24T19:27:54;4.38;;;2.38;;
15944;SDS011;30172;48.832;8.732;2023-07-24T19:41:43;2.75;;;2.40;;
15944;SDS011;30172;48.832;8.732;2023-07-24T19:44:22;3.38;;;2.38;;
15944;SDS011;30172;48.832;8.732;2023-07-24T19:46:55;2.50;;;2.03;;
15944;SDS011;30172;48.832;8.732;2023-07-24T19:49:42;2.67;;;2.22;;
15944;SDS011;30172;48.832;8.732;2023-07-24T19:52:49;2.65;;;2.30;;
15944;SDS011;30172;48.832;8.732;2023-07-24T19:58:59;2.58;;;2.38;;
15944;SDS011;30172;48.832;8.732;2023-07-24T20:01:53;3.53;;;2.10;;
15944;SDS011;30172;48.832;8.732;2023-07-24T20:04:52;4.15;;;2.83;;
15944;SDS011;30172;48.832;8.732;2023-07-24T20:11:09;4.35;;;2.38;;
15944;SDS011;30172;48.832;8.732;2023-07-24T20:14:30;4.03;;;2.60;;
15944;SDS011;30172;48.832;8.732;2023-07-24T20:17:21;5.75;;;2.65;;
15944;SDS011;30172;48.832;8.732;2023-07-24T20:20:19;2.45;;;2.25;;
15944;SDS011;30172;48.832;8.732;2023-07-24T20:29:57;4.25;;;2.33;;
15944;SDS011;30172;48.832;8.732;2023-07-24T20:35:43;4.50;;;2.45;;
15944;SDS011;30172;48.832;8.732;2023-07-24T20:38:38;3.10;;;2.30;;
15944;SDS011;30172;48.832;8.732;2023-07-24T20:41:32;3.80;;;3.10;;
15944;SDS011;30172;48.832;8.732;2023-07-24T20:51:00;4.15;;;2.28;;
